Time;durP1;ratioP1;P1;durP2;ratioP2;P2;SDS_P1;SDS_P2;PMS_P1;PMS_P2;Temp;Humidity;BMP_temperature;BMP_pressure;BME280_temperature;BME280_humidity;BME280_pressure;Samples;Min_cycle;Max_cycle;Signal;HPM_P1;HPM_P2
2024/01/09 00:02:00;;;;;;;4.75;2.65;;;;;;;-4.86;66.45;103357.41;5054782;28;20123;-79
2024/01/09 00:04:25;;;;;;;5.50;2.97;;;;;;;-4.87;65.78;103358.19;5088444;28;20074;-79
2024/01/09 00:06:51;;;;;;;4.75;2.58;;;;;;;-4.84;66.49;103352.38;5055064;28;20024;-79
2024/01/09 00:09:16;;;;;;;4.95;2.83;;;;;;;-4.93;65.70;103341.28;5073074;28;20047;-78
2024/01/09 00:11:42;;;;;;;5.72;3.40;;;;;;;-4.90;66.34;103350.16;5069204;28;20185;-79
2024/01/09 00:14:07;;;;;;;5.25;2.78;;;;;;;-4.86;65.51;103356.50;5055189;28;20032;-79
2024/01/09 00:16:33;;;;;;;4.75;2.80;;;;;;;-4.87;65.96;103352.09;5053308;28;20020;-79
2024/01/09 00:19:01;;;;;;;4.75;2.78;;;;;;;-4.90;65.70;103357.91;5045421;28;20051;-79
2024/01/09 00:21:27;;;;;;;4.50;2.88;;;;;;;-4.91;65.88;103355.22;5055428;28;20428;-79
2024/01/09 00:23:52;;;;;;;3.50;2.50;;;;;;;-4.91;67.08;103347.47;5046269;28;20127;-78
2024/01/09 00:26:21;;;;;;;6.60;3.00;;;;;;;-4.90;66.25;103354.44;5067222;28;20487;-79
2024/01/09 00:28:46;;;;;;;4.25;2.80;;;;;;;-4.95;66.14;103340.25;5066791;28;20035;-79
2024/01/09 00:31:12;;;;;;;5.15;3.05;;;;;;;-4.95;65.82;103345.41;5057164;28;20044;-79
2024/01/09 00:33:37;;;;;;;4.53;2.95;;;;;;;-4.99;66.83;103342.59;5085501;28;21632;-79
2024/01/09 00:36:03;;;;;;;3.90;2.35;;;;;;;-4.97;66.16;103353.03;5056022;28;20079;-79
2024/01/09 00:38:29;;;;;;;4.18;2.72;;;;;;;-5.00;65.53;103351.09;5072100;28;20032;-79
2024/01/09 00:40:55;;;;;;;4.35;2.83;;;;;;;-5.00;65.91;103358.84;5050146;28;20120;-79
2024/01/09 00:43:20;;;;;;;4.82;2.88;;;;;;;-5.02;66.13;103350.09;5027203;28;20521;-79
2024/01/09 00:45:46;;;;;;;3.47;2.70;;;;;;;-5.04;66.64;103354.22;5048946;28;20032;-79
2024/01/09 00:48:11;;;;;;;4.70;2.72;;;;;;;-5.06;68.06;103348.03;5045954;28;20146;-79
2024/01/09 00:50:37;;;;;;;5.75;2.67;;;;;;;-5.02;66.22;103356.91;5069153;28;20040;-78
2024/01/09 00:53:04;;;;;;;8.88;3.10;;;;;;;-5.07;65.60;103355.63;5039667;28;20028;-79
2024/01/09 00:55:30;;;;;;;4.68;3.00;;;;;;;-5.08;66.24;103356.44;5056847;28;20130;-80
2024/01/09 00:57:55;;;;;;;4.88;2.75;;;;;;;-5.09;65.79;103363.28;5070891;28;20131;-79
2024/01/09 01:00:21;;;;;;;4.05;2.80;;;;;;;-5.09;66.17;103354.63;5068934;28;20085;-79
2024/01/09 01:02:47;;;;;;;4.25;2.90;;;;;;;-5.09;66.57;103350.38;5072392;28;20138;-79
2024/01/09 01:05:16;;;;;;;5.68;2.72;;;;;;;-5.12;66.46;103349.19;5046895;28;20055;-79
2024/01/09 01:07:42;;;;;;;4.47;3.03;;;;;;;-5.10;65.94;103347.66;5063123;28;20058;-79
2024/01/09 01:10:11;;;;;;;4.63;2.97;;;;;;;-5.10;66.75;103348.53;5072479;28;20043;-79
2024/01/09 01:12:37;;;;;;;4.40;2.88;;;;;;;-5.12;66.03;103347.50;5056145;28;20040;-79
2024/01/09 01:15:04;;;;;;;3.75;2.40;;;;;;;-5.14;66.38;103340.41;5062795;28;20032;-79
2024/01/09 01:17:30;;;;;;;4.97;3.20;;;;;;;-5.13;66.25;103347.41;5050855;28;20117;-79
2024/01/09 01:19:55;;;;;;;4.43;2.95;;;;;;;-5.16;66.85;103348.06;5073266;28;20070;-79
2024/01/09 01:22:21;;;;;;;4.97;3.10;;;;;;;-5.18;67.24;103350.50;5048341;28;20454;-79
2024/01/09 01:24:46;;;;;;;3.70;2.90;;;;;;;-5.18;66.88;103354.78;5071389;28;20050;-79
2024/01/09 01:27:12;;;;;;;5.60;2.80;;;;;;;-5.19;66.45;103356.47;5040713;28;20068;-79
2024/01/09 01:29:37;;;;;;;4.72;2.83;;;;;;;-5.21;66.42;103357.09;5072169;28;20128;-79
2024/01/09 01:32:09;;;;;;;3.58;2.70;;;;;;;-5.21;66.46;103362.28;5080728;28;20035;-79
2024/01/09 01:34:34;;;;;;;3.63;2.50;;;;;;;-5.24;66.85;103356.88;5060021;28;20044;-79
2024/01/09 01:37:00;;;;;;;5.25;2.47;;;;;;;-5.28;66.79;103350.53;5055677;28;20047;-80
2024/01/09 01:39:25;;;;;;;4.20;2.28;;;;;;;-5.28;67.04;103353.09;5038116;28;20040;-79
2024/01/09 01:41:51;;;;;;;5.20;3.15;;;;;;;-5.28;67.05;103359.97;5022461;28;20072;-79
2024/01/09 01:44:17;;;;;;;3.88;2.20;;;;;;;-5.29;66.79;103360.72;5053274;28;20036;-80
2024/01/09 01:46:45;;;;;;;4.25;2.60;;;;;;;-5.30;66.94;103359.81;5056906;28;20052;-80
2024/01/09 01:49:12;;;;;;;4.68;2.90;;;;;;;-5.32;67.08;103358.78;5074662;28;20055;-79
2024/01/09 01:51:39;;;;;;;4.20;2.53;;;;;;;-5.31;66.80;103354.53;5074704;28;20414;-79
2024/01/09 01:54:06;;;;;;;3.75;2.78;;;;;;;-5.36;67.25;103358.44;5056779;28;20041;-79
2024/01/09 01:56:32;;;;;;;4.43;2.60;;;;;;;-5.35;67.45;103350.78;5059320;28;20151;-78
2024/01/09 01:58:58;;;;;;;4.10;2.97;;;;;;;-5.42;67.23;103346.78;5083296;28;20128;-79
2024/01/09 02:01:24;;;;;;;4.78;2.75;;;;;;;-5.38;67.32;103359.97;5053840;28;20115;-80
2024/01/09 02:03:50;;;;;;;4.68;2.88;;;;;;;-5.37;67.31;103356.59;5056499;28;20101;-80
2024/01/09 02:06:16;;;;;;;5.47;3.22;;;;;;;-5.44;67.23;103353.53;5054159;28;20032;-79
2024/01/09 02:08:43;;;;;;;4.20;2.50;;;;;;;-5.43;67.78;103347.56;5030671;28;20020;-79
2024/01/09 02:11:10;;;;;;;4.30;2.75;;;;;;;-5.44;68.12;103348.38;5080798;28;20123;-79
2024/01/09 02:13:35;;;;;;;4.68;3.15;;;;;;;-5.44;67.77;103353.53;5056046;28;20032;-79
2024/01/09 02:16:01;;;;;;;4.95;3.20;;;;;;;-5.37;67.43;103354.03;5051447;28;20035;-79
2024/01/09 02:18:27;;;;;;;5.28;3.33;;;;;;;-5.48;68.01;103356.63;5043412;28;20116;-79
2024/01/09 02:20:53;;;;;;;8.38;3.28;;;;;;;-5.46;68.02;103354.19;5084188;28;20563;-79
2024/01/09 02:23:18;;;;;;;4.65;3.03;;;;;;;-5.48;68.08;103353.13;5070354;28;20049;-79
2024/01/09 02:25:45;;;;;;;4.40;2.90;;;;;;;-5.48;67.50;103345.38;5059090;28;20466;-79
2024/01/09 02:28:18;;;;;;;3.75;2.40;;;;;;;-5.53;67.96;103347.59;5073025;28;20044;-79
2024/01/09 02:30:45;;;;;;;5.05;2.95;;;;;;;-5.49;68.04;103348.72;5074901;28;20032;-79
2024/01/09 02:33:11;;;;;;;3.75;2.58;;;;;;;-5.56;68.09;103339.59;5075549;28;20035;-79
2024/01/09 02:35:37;;;;;;;4.53;2.58;;;;;;;-5.55;68.69;103350.81;5057626;28;20047;-79
2024/01/09 02:38:03;;;;;;;6.18;3.22;;;;;;;-5.56;68.64;103336.06;5068036;28;20025;-79
2024/01/09 02:40:28;;;;;;;3.75;2.63;;;;;;;-5.53;68.75;103342.41;5059770;28;20399;-79
2024/01/09 02:42:54;;;;;;;5.00;2.58;;;;;;;-5.56;68.87;103338.66;5052530;28;20028;-78
2024/01/09 02:45:20;;;;;;;4.72;2.60;;;;;;;-5.58;68.67;103341.13;5075304;28;20355;-79
2024/01/09 02:47:45;;;;;;;4.00;2.80;;;;;;;-5.60;69.12;103334.94;5061021;28;20024;-79
2024/01/09 02:50:11;;;;;;;4.28;2.60;;;;;;;-5.62;69.33;103327.03;5077066;28;20048;-79
2024/01/09 02:52:36;;;;;;;5.20;3.03;;;;;;;-5.63;69.42;103330.41;5039996;28;20116;-79
2024/01/09 02:55:02;;;;;;;3.72;2.90;;;;;;;-5.59;69.36;103333.25;5055944;28;20036;-79
2024/01/09 02:57:27;;;;;;;4.45;2.58;;;;;;;-5.62;69.32;103333.91;5055287;28;20044;-79
2024/01/09 02:59:52;;;;;;;5.43;2.63;;;;;;;-5.65;69.36;103324.22;5061746;28;20040;-79
2024/01/09 03:02:18;;;;;;;5.88;3.17;;;;;;;-5.67;69.39;103328.34;5059097;28;20458;-79
2024/01/09 03:04:43;;;;;;;4.90;3.00;;;;;;;-5.70;69.19;103322.94;5061160;28;20028;-79
2024/01/09 03:07:10;;;;;;;4.32;2.85;;;;;;;-5.71;69.85;103326.31;5050435;28;20047;-79
2024/01/09 03:09:36;;;;;;;3.75;2.70;;;;;;;-5.72;69.64;103321.91;5053045;28;20032;-79
2024/01/09 03:12:03;;;;;;;5.25;2.78;;;;;;;-5.72;70.51;103324.47;5041788;28;20502;-79
2024/01/09 03:14:28;;;;;;;6.93;2.80;;;;;;;-5.74;70.15;103318.28;5067610;28;20396;-79
2024/01/09 03:16:54;;;;;;;4.65;3.05;;;;;;;-5.73;69.86;103326.94;5042244;28;20048;-79
2024/01/09 03:19:19;;;;;;;4.38;2.78;;;;;;;-5.73;69.91;103322.69;5058255;28;20055;-79
2024/01/09 03:21:45;;;;;;;6.75;3.13;;;;;;;-5.74;69.91;103326.00;5070120;28;20056;-78
2024/01/09 03:24:10;;;;;;;4.60;2.78;;;;;;;-5.77;70.15;103332.63;5055028;28;20048;-79
2024/01/09 03:26:36;;;;;;;6.82;2.88;;;;;;;-5.76;69.74;103329.25;5046590;28;20031;-78
2024/01/09 03:29:02;;;;;;;5.55;3.28;;;;;;;-5.78;70.93;103335.97;5063903;28;20062;-79
2024/01/09 03:31:28;;;;;;;3.78;2.40;;;;;;;-5.79;70.37;103329.88;5067064;28;20482;-85
2024/01/09 03:33:54;;;;;;;3.38;2.85;;;;;;;-5.73;69.71;103325.25;5062720;28;20040;-85
2024/01/09 03:36:19;;;;;;;4.20;2.63;;;;;;;-5.79;69.90;103329.00;5064222;28;20046;-85
2024/01/09 03:38:45;;;;;;;5.53;3.05;;;;;;;-5.79;70.14;103331.56;5064580;28;20037;-85
2024/01/09 03:41:11;;;;;;;4.75;3.22;;;;;;;-5.81;70.53;103334.03;5058012;28;20082;-85
2024/01/09 03:43:37;;;;;;;3.38;2.35;;;;;;;-5.79;70.31;103336.72;5051906;28;20038;-85
2024/01/09 03:46:07;;;;;;;5.90;3.03;;;;;;;-5.84;70.83;103329.50;5072521;28;20070;-85
2024/01/09 03:48:33;;;;;;;8.90;3.10;;;;;;;-5.85;70.80;103324.22;5032593;28;20388;-85
2024/01/09 03:50:58;;;;;;;5.25;2.92;;;;;;;-5.85;70.56;103327.69;5038077;28;20283;-85
2024/01/09 03:53:24;;;;;;;5.22;3.20;;;;;;;-5.86;70.56;103318.16;5058956;28;20055;-85
2024/01/09 03:55:49;;;;;;;3.90;2.85;;;;;;;-5.87;70.81;103323.19;5044987;28;20040;-85
2024/01/09 03:58:15;;;;;;;6.50;2.88;;;;;;;-5.87;71.16;103318.03;5063364;28;20068;-85
2024/01/09 04:00:40;;;;;;;4.88;2.47;;;;;;;-5.86;70.86;103320.75;5045264;28;20115;-85
2024/01/09 04:03:06;;;;;;;5.57;2.75;;;;;;;-5.89;70.74;103317.88;5057783;28;20112;-85
2024/01/09 04:05:32;;;;;;;4.78;2.85;;;;;;;-5.94;70.87;103324.38;5073000;28;20118;-84
2024/01/09 04:07:58;;;;;;;4.45;3.00;;;;;;;-5.93;71.23;103309.78;5076501;28;20028;-85
2024/01/09 04:10:23;;;;;;;3.88;2.50;;;;;;;-5.90;70.91;103315.19;5092516;28;20445;-84
2024/01/09 04:12:49;;;;;;;4.30;2.88;;;;;;;-5.93;71.60;103309.78;5075275;28;20093;-84
2024/01/09 04:15:15;;;;;;;3.70;2.47;;;;;;;-5.95;71.25;103309.69;5082451;28;20039;-84
2024/01/09 04:17:40;;;;;;;4.13;2.95;;;;;;;-5.94;70.83;103320.91;5103635;28;20378;-85
2024/01/09 04:20:08;;;;;;;4.78;2.70;;;;;;;-5.97;71.29;103316.38;5076334;28;20040;-84
2024/01/09 04:22:33;;;;;;;4.97;2.53;;;;;;;-5.89;71.02;103324.72;5047368;28;20052;-84
2024/01/09 04:24:59;;;;;;;3.38;2.38;;;;;;;-5.89;70.68;103325.63;5064017;28;20108;-84
2024/01/09 04:27:24;;;;;;;6.25;2.95;;;;;;;-5.95;70.93;103321.69;5062553;28;20871;-85
2024/01/09 04:29:50;;;;;;;4.65;3.10;;;;;;;-5.97;71.05;103325.81;5045409;28;20432;-79
2024/01/09 04:32:15;;;;;;;5.82;3.00;;;;;;;-5.98;70.93;103316.22;5049514;28;20044;-79
2024/01/09 04:34:42;;;;;;;4.45;3.03;;;;;;;-5.97;71.68;103315.47;5004497;28;20101;-79
2024/01/09 04:37:08;;;;;;;4.63;2.60;;;;;;;-5.96;71.16;103319.84;5087978;28;20044;-79
2024/01/09 04:39:33;;;;;;;4.68;2.70;;;;;;;-5.98;71.43;103317.16;5059514;28;20043;-79
2024/01/09 04:41:59;;;;;;;6.10;3.17;;;;;;;-5.95;70.99;103326.84;5085215;28;20020;-78
2024/01/09 04:44:24;;;;;;;4.90;2.85;;;;;;;-5.99;71.11;103324.75;5064071;28;20032;-78
2024/01/09 04:46:50;;;;;;;4.85;2.95;;;;;;;-5.98;71.27;103314.59;5035499;28;20043;-79
2024/01/09 04:49:15;;;;;;;4.90;2.95;;;;;;;-5.98;71.20;103316.22;5086663;28;20108;-84
2024/01/09 04:51:41;;;;;;;5.78;2.97;;;;;;;-6.00;71.10;103318.72;5090689;28;20093;-84
2024/01/09 04:54:07;;;;;;;3.63;2.67;;;;;;;-6.01;71.13;103318.56;5056264;28;20040;-78
2024/01/09 04:56:33;;;;;;;2.40;1.83;;;;;;;-6.00;71.42;103316.13;5060199;28;20118;-79
2024/01/09 04:58:58;;;;;;;5.75;2.70;;;;;;;-6.03;71.60;103322.69;5061563;28;20103;-79
2024/01/09 05:01:24;;;;;;;5.75;3.00;;;;;;;-6.06;71.36;103310.44;5076370;28;20483;-79
2024/01/09 05:03:50;;;;;;;5.10;3.03;;;;;;;-6.06;71.38;103303.63;5048000;28;20062;-79
2024/01/09 05:06:16;;;;;;;4.57;2.75;;;;;;;-6.06;72.07;103305.25;5058309;28;20102;-78
2024/01/09 05:08:42;;;;;;;4.72;2.67;;;;;;;-6.07;71.67;103308.63;5065034;28;20036;-78
2024/01/09 05:11:08;;;;;;;3.83;2.83;;;;;;;-6.08;72.44;103312.91;5082063;28;20461;-78
2024/01/09 05:13:34;;;;;;;5.65;3.05;;;;;;;-6.10;71.86;103300.63;5067405;28;20024;-78
2024/01/09 05:16:00;;;;;;;2.78;2.30;;;;;;;-6.10;72.07;103316.13;5038180;28;20034;-79
2024/01/09 05:18:25;;;;;;;5.45;2.90;;;;;;;-6.11;72.65;103311.72;5055923;28;20040;-79
2024/01/09 05:20:51;;;;;;;4.93;3.28;;;;;;;-6.14;72.42;103314.94;5075021;28;20040;-78
2024/01/09 05:23:16;;;;;;;5.40;3.10;;;;;;;-6.14;72.17;103308.88;5052655;28;20364;-79
2024/01/09 05:25:42;;;;;;;3.88;2.58;;;;;;;-6.13;72.50;103309.03;5059678;28;20391;-79
2024/01/09 05:28:07;;;;;;;6.78;3.88;;;;;;;-6.14;72.37;103312.34;5069101;28;20383;-78
2024/01/09 05:30:33;;;;;;;6.63;3.40;;;;;;;-6.09;72.29;103303.34;5053311;28;20599;-79
2024/01/09 05:32:58;;;;;;;4.22;2.85;;;;;;;-6.12;72.21;103317.66;5042018;28;20133;-78
2024/01/09 05:35:24;;;;;;;4.22;2.17;;;;;;;-6.11;72.38;103311.72;5064172;28;20040;-78
2024/01/09 05:37:49;;;;;;;6.47;2.70;;;;;;;-6.10;72.12;103327.34;5085955;28;20036;-78
2024/01/09 05:40:16;;;;;;;5.97;3.30;;;;;;;-6.16;72.14;103311.31;5064750;28;20036;-78
2024/01/09 05:42:43;;;;;;;5.03;3.28;;;;;;;-6.16;72.50;103320.72;5044391;28;20078;-78
2024/01/09 05:45:09;;;;;;;6.85;2.78;;;;;;;-6.14;73.03;103321.78;5082057;28;20103;-78
2024/01/09 05:47:35;;;;;;;5.60;3.13;;;;;;;-6.14;72.52;103324.34;5048167;28;20115;-78
2024/01/09 05:50:01;;;;;;;5.72;3.15;;;;;;;-6.18;73.32;103315.47;5062663;28;20123;-78
2024/01/09 05:52:26;;;;;;;4.63;2.88;;;;;;;-6.20;72.87;103310.94;5085402;28;20453;-78
2024/01/09 05:54:52;;;;;;;3.72;2.60;;;;;;;-6.17;73.37;103316.38;5048636;28;20029;-79
2024/01/09 05:57:17;;;;;;;4.22;2.70;;;;;;;-6.17;73.08;103314.69;5054274;28;20387;-79
2024/01/09 05:59:43;;;;;;;5.63;3.60;;;;;;;-6.22;72.76;103315.97;5072310;28;20040;-79
2024/01/09 06:02:08;;;;;;;5.07;3.22;;;;;;;-6.22;73.36;103309.91;5063761;28;20020;-78
2024/01/09 06:04:34;;;;;;;7.25;3.60;;;;;;;-6.21;73.40;103315.19;5039830;28;20051;-78
2024/01/09 06:06:59;;;;;;;5.07;3.40;;;;;;;-6.21;73.37;103316.84;5050324;28;20329;-78
2024/01/09 06:09:25;;;;;;;8.57;3.88;;;;;;;-6.28;73.21;103311.19;5050803;28;20119;-78
2024/01/09 06:11:50;;;;;;;4.72;3.10;;;;;;;-6.27;74.24;103307.81;5088557;28;20068;-78
2024/01/09 06:14:16;;;;;;;6.97;3.80;;;;;;;-6.27;74.12;103306.94;5074371;28;20036;-78
2024/01/09 06:16:41;;;;;;;3.78;2.80;;;;;;;-6.29;73.85;103305.88;5056352;28;20493;-78
2024/01/09 06:19:07;;;;;;;5.88;3.60;;;;;;;-6.25;73.46;103314.81;5058020;28;20043;-79
2024/01/09 06:21:33;;;;;;;7.97;3.83;;;;;;;-6.29;73.60;103305.88;5047402;28;20436;-79
2024/01/09 06:23:58;;;;;;;5.78;3.75;;;;;;;-6.29;73.50;103311.03;5023198;28;20209;-79
2024/01/09 06:26:24;;;;;;;4.35;2.78;;;;;;;-6.31;73.78;103316.06;5049498;28;20475;-78
2024/01/09 06:28:49;;;;;;;7.75;3.55;;;;;;;-6.30;73.36;103315.31;5041229;28;20459;-78
2024/01/09 06:31:15;;;;;;;6.18;2.90;;;;;;;-6.30;74.49;103322.16;5056280;28;20162;-78
2024/01/09 06:33:40;;;;;;;5.72;3.40;;;;;;;-6.33;74.15;103317.63;5033516;28;20471;-79
2024/01/09 06:36:06;;;;;;;6.28;3.80;;;;;;;-6.39;73.75;103314.50;5042879;28;20059;-78
2024/01/09 06:38:32;;;;;;;5.00;3.33;;;;;;;-6.31;74.65;103325.47;5051214;28;20100;-78
2024/01/09 06:40:58;;;;;;;4.70;3.10;;;;;;;-6.27;73.61;103337.88;5041695;28;20078;-78
2024/01/09 06:43:24;;;;;;;6.57;3.15;;;;;;;-6.30;74.19;103333.34;5055778;28;20565;-78
2024/01/09 06:45:49;;;;;;;6.25;3.55;;;;;;;-6.34;74.51;103338.13;5055905;28;20128;-78
2024/01/09 06:48:15;;;;;;;4.88;3.22;;;;;;;-6.33;74.11;103342.50;5055690;28;20062;-78
2024/01/09 06:50:40;;;;;;;4.78;2.95;;;;;;;-6.35;74.36;103352.69;5073697;28;20159;-78
2024/01/09 06:53:06;;;;;;;8.75;4.00;;;;;;;-6.41;74.23;103336.66;5055427;28;20067;-79
2024/01/09 06:55:31;;;;;;;5.28;3.05;;;;;;;-6.39;74.80;103340.28;5030203;28;20151;-79
2024/01/09 06:57:57;;;;;;;6.00;3.47;;;;;;;-6.35;74.91;103349.22;5038838;28;20158;-79
2024/01/09 07:00:22;;;;;;;8.30;3.80;;;;;;;-6.36;74.18;103345.69;5048560;28;20047;-80
2024/01/09 07:02:48;;;;;;;5.93;3.47;;;;;;;-6.36;74.52;103343.13;5059811;28;20033;-79
2024/01/09 07:05:13;;;;;;;9.68;3.83;;;;;;;-6.38;74.60;103341.19;5046431;28;20490;-79
2024/01/09 07:07:39;;;;;;;5.35;3.08;;;;;;;-6.39;74.25;103345.44;5058683;28;20098;-79
2024/01/09 07:10:05;;;;;;;5.90;3.55;;;;;;;-6.37;74.43;103343.91;5058406;28;20135;-79
2024/01/09 07:12:31;;;;;;;5.97;3.63;;;;;;;-6.38;74.14;103351.50;5074904;28;20036;-79
2024/01/09 07:14:56;;;;;;;7.43;3.42;;;;;;;-6.40;74.61;103342.75;5038313;28;20040;-79
2024/01/09 07:17:22;;;;;;;6.10;3.30;;;;;;;-6.41;74.35;103354.72;5056072;28;20683;-79
2024/01/09 07:19:48;;;;;;;6.75;3.53;;;;;;;-6.42;74.71;103347.75;5057879;28;20059;-79
2024/01/09 07:22:13;;;;;;;5.93;3.55;;;;;;;-6.44;74.72;103339.00;5043813;28;20122;-79
2024/01/09 07:24:39;;;;;;;6.53;3.80;;;;;;;-6.42;74.22;103349.44;5044184;28;20135;-79
2024/01/09 07:27:04;;;;;;;8.32;3.70;;;;;;;-6.45;74.52;103347.50;5086362;28;20052;-78
2024/01/09 07:29:30;;;;;;;8.52;4.43;;;;;;;-6.41;74.44;103348.66;5038955;28;20115;-79
2024/01/09 07:31:55;;;;;;;7.50;4.35;;;;;;;-6.41;74.56;103353.81;5068046;28;20040;-79
2024/01/09 07:34:21;;;;;;;18.17;4.20;;;;;;;-6.43;74.53;103365.66;5046487;28;20493;-79
2024/01/09 07:36:46;;;;;;;5.45;3.28;;;;;;;-6.46;74.94;103363.72;5069210;28;20470;-79
2024/01/09 07:39:12;;;;;;;7.55;4.03;;;;;;;-6.47;74.83;103363.59;5045124;28;20091;-80
2024/01/09 07:41:37;;;;;;;7.07;3.83;;;;;;;-6.44;74.51;103381.91;5066826;28;20040;-79
2024/01/09 07:44:03;;;;;;;9.65;4.47;;;;;;;-6.43;74.95;103386.28;5054799;28;20040;-79
2024/01/09 07:46:31;;;;;;;7.95;3.97;;;;;;;-6.45;74.88;103372.34;5062792;28;20389;-79
2024/01/09 07:48:57;;;;;;;6.25;3.95;;;;;;;-6.48;75.10;103370.41;5055824;28;20070;-79
2024/01/09 07:51:22;;;;;;;7.38;4.60;;;;;;;-6.46;75.19;103386.03;5057666;28;20411;-78
2024/01/09 07:53:48;;;;;;;6.85;4.35;;;;;;;-6.45;75.13;103380.09;5056154;28;20036;-79
2024/01/09 07:56:17;;;;;;;7.57;3.67;;;;;;;-6.45;75.73;103383.59;5054920;28;20095;-79
2024/01/09 07:58:44;;;;;;;5.97;4.20;;;;;;;-6.46;75.35;103376.63;5048965;28;20035;-79
2024/01/09 08:01:11;;;;;;;8.35;3.95;;;;;;;-6.44;74.90;103385.41;5083627;28;20500;-80
2024/01/09 08:03:37;;;;;;;7.70;4.35;;;;;;;-6.42;75.60;103391.59;5029221;28;20059;-79
2024/01/09 08:06:02;;;;;;;7.18;4.25;;;;;;;-6.39;75.44;103385.81;5057170;28;20067;-79
2024/01/09 08:08:28;;;;;;;7.60;4.07;;;;;;;-6.44;75.53;103372.50;5060091;28;20032;-79
2024/01/09 08:10:53;;;;;;;6.80;4.00;;;;;;;-6.41;75.66;103388.22;5042713;28;20082;-79
2024/01/09 08:13:19;;;;;;;8.20;4.40;;;;;;;-6.39;75.18;103389.28;5053341;28;20109;-79
2024/01/09 08:15:44;;;;;;;7.47;3.92;;;;;;;-6.40;75.47;103394.31;5024391;28;20110;-79
2024/01/09 08:18:10;;;;;;;7.00;4.60;;;;;;;-6.42;75.74;103396.75;5057635;28;20173;-80
2024/01/09 08:20:35;;;;;;;8.27;4.95;;;;;;;-6.40;75.35;103397.78;5055928;28;20064;-80
2024/01/09 08:23:02;;;;;;;10.68;4.28;;;;;;;-6.40;75.45;103405.53;5018989;28;20048;-79
2024/01/09 08:25:28;;;;;;;7.05;3.70;;;;;;;-6.38;75.64;103398.84;5035619;28;20479;-79
2024/01/09 08:27:54;;;;;;;9.77;4.22;;;;;;;-6.36;75.88;103394.69;5070067;28;20035;-79
2024/01/09 08:30:19;;;;;;;7.95;4.75;;;;;;;-6.30;74.63;103405.56;5053846;28;20062;-79
2024/01/09 08:32:45;;;;;;;7.25;4.28;;;;;;;-6.29;74.55;103404.78;5041561;28;20024;-79
2024/01/09 08:35:10;;;;;;;7.63;4.65;;;;;;;-6.27;76.11;103403.25;5053710;28;20036;-79
2024/01/09 08:37:36;;;;;;;6.60;3.80;;;;;;;-6.23;75.56;103390.59;5051106;28;20029;-79
2024/01/09 08:40:02;;;;;;;10.07;5.43;;;;;;;-6.21;75.00;103401.97;5050829;28;20044;-79
2024/01/09 08:42:27;;;;;;;6.05;3.90;;;;;;;-6.17;74.55;103411.78;5064612;28;20055;-79
2024/01/09 08:44:53;;;;;;;5.05;3.33;;;;;;;-6.15;74.29;103402.53;5040621;28;20040;-79
2024/01/09 08:47:18;;;;;;;8.55;4.50;;;;;;;-6.14;73.91;103405.22;5064944;28;20519;-80
2024/01/09 08:49:44;;;;;;;7.30;4.70;;;;;;;-6.07;73.42;103404.09;5036997;28;20037;-80
2024/01/09 08:52:10;;;;;;;14.15;5.00;;;;;;;-6.08;73.85;103404.88;5059932;28;20120;-80
2024/01/09 08:54:35;;;;;;;9.75;4.63;;;;;;;-6.08;73.23;103408.34;5049442;28;20486;-80
2024/01/09 08:57:01;;;;;;;7.38;4.38;;;;;;;-6.03;73.92;103412.97;5052793;28;20045;-81
2024/01/09 08:59:26;;;;;;;8.02;4.57;;;;;;;-5.99;74.43;103407.31;5047369;28;20032;-81
2024/01/09 09:01:52;;;;;;;7.10;4.13;;;;;;;-5.95;74.23;103417.16;5046712;28;20040;-81
2024/01/09 09:04:17;;;;;;;8.48;4.78;;;;;;;-5.89;73.76;103422.78;5039905;28;20440;-81
2024/01/09 09:06:43;;;;;;;6.28;4.30;;;;;;;-5.87;73.13;103427.31;5064515;28;20128;-81
2024/01/09 09:09:09;;;;;;;9.85;4.13;;;;;;;-5.84;73.27;103424.97;5066968;28;20084;-81
2024/01/09 09:11:35;;;;;;;7.05;3.83;;;;;;;-5.77;73.18;103420.38;5058639;28;20129;-79
2024/01/09 09:14:00;;;;;;;8.63;4.40;;;;;;;-5.75;72.71;103422.31;5055928;28;20116;-80
2024/01/09 09:16:28;;;;;;;7.57;4.43;;;;;;;-5.74;72.84;103424.09;5059846;28;20037;-80
2024/01/09 09:18:55;;;;;;;8.27;4.25;;;;;;;-5.71;72.82;103428.63;5052161;28;20064;-81
2024/01/09 09:21:20;;;;;;;11.20;5.30;;;;;;;-5.66;72.81;103424.78;5074249;28;20081;-81
2024/01/09 09:23:47;;;;;;;8.23;4.78;;;;;;;-5.62;72.77;103432.88;5059314;28;20052;-80
2024/01/09 09:26:13;;;;;;;5.55;3.78;;;;;;;-5.60;71.89;103430.44;5075590;28;20115;-82
2024/01/09 09:28:40;;;;;;;9.35;4.60;;;;;;;-5.60;71.51;103425.28;5038366;28;20124;-82
2024/01/09 09:31:05;;;;;;;7.15;4.53;;;;;;;-5.55;71.16;103417.94;5027825;28;20032;-82
2024/01/09 09:33:33;;;;;;;9.52;5.22;;;;;;;-5.54;71.40;103419.72;5050257;28;20193;-82
2024/01/09 09:36:06;;;;;;;6.35;4.13;;;;;;;-5.48;70.97;103417.69;5057081;28;20036;-82
2024/01/09 09:38:33;;;;;;;4.32;2.80;;;;;;;-5.43;71.81;103422.47;5069638;28;20032;-83
2024/01/09 09:41:03;;;;;;;9.68;4.40;;;;;;;-5.40;71.44;103420.13;5057402;28;20380;-83
2024/01/09 09:43:33;;;;;;;6.13;4.22;;;;;;;-5.32;71.13;103431.09;5057727;28;20437;-82
2024/01/09 09:46:01;;;;;;;8.30;4.63;;;;;;;-5.32;71.13;103412.13;5041197;28;20033;-83
2024/01/09 09:48:28;;;;;;;7.07;4.28;;;;;;;-5.27;70.65;103414.31;5067307;28;20040;-83
2024/01/09 09:50:55;;;;;;;8.80;4.50;;;;;;;-5.20;70.75;103421.78;5062890;28;20132;-82
2024/01/09 09:53:22;;;;;;;7.28;4.10;;;;;;;-5.21;70.60;103407.09;5048508;28;20065;-82
2024/01/09 09:55:48;;;;;;;6.78;4.32;;;;;;;-5.14;69.63;103415.34;5060638;28;20444;-82
2024/01/09 09:58:16;;;;;;;10.48;4.90;;;;;;;-5.09;70.29;103420.13;5074913;28;20119;-83
2024/01/09 10:00:43;;;;;;;6.68;4.22;;;;;;;-5.09;69.99;103396.88;5052788;28;20043;-82
2024/01/09 10:03:11;;;;;;;7.50;4.63;;;;;;;-5.02;69.44;103403.44;5076910;28;20475;-83
2024/01/09 10:05:40;;;;;;;8.10;4.60;;;;;;;-5.08;69.21;103380.59;5068197;28;20028;-82
2024/01/09 10:08:10;;;;;;;7.35;4.68;;;;;;;-4.91;69.54;103397.47;5073183;28;20115;-82
2024/01/09 10:10:36;;;;;;;8.77;4.93;;;;;;;-4.84;68.72;103401.47;5057304;28;20471;-82
2024/01/09 10:13:03;;;;;;;9.15;5.20;;;;;;;-4.81;68.20;103394.88;5052864;28;20109;-82
2024/01/09 10:15:29;;;;;;;9.60;4.82;;;;;;;-4.78;69.25;103391.63;5074876;28;20383;-81
2024/01/09 10:17:54;;;;;;;7.00;5.05;;;;;;;-4.77;68.77;103375.34;5040465;28;20050;-83
2024/01/09 10:20:20;;;;;;;6.70;4.18;;;;;;;-4.75;67.61;103368.59;5072423;28;20040;-81
2024/01/09 10:22:47;;;;;;;9.95;3.80;;;;;;;-4.58;67.36;103393.22;5056953;28;20055;-82
2024/01/09 10:25:15;;;;;;;6.72;4.40;;;;;;;-4.55;67.13;103384.06;5059053;28;20065;-82
2024/01/09 10:27:41;;;;;;;7.95;4.07;;;;;;;-4.53;66.70;103376.41;5080531;28;20031;-82
2024/01/09 10:30:09;;;;;;;6.63;3.80;;;;;;;-4.42;66.94;103390.22;5073788;28;20103;-82
2024/01/09 10:32:36;;;;;;;10.23;4.53;;;;;;;-4.42;67.08;103375.59;5067374;28;20037;-82
2024/01/09 10:35:07;;;;;;;6.10;3.85;;;;;;;-4.37;66.52;103376.84;5042830;28;20527;-82
2024/01/09 10:37:34;;;;;;;8.68;4.72;;;;;;;-4.30;67.89;103374.75;5042868;28;20029;-82
2024/01/09 10:40:00;;;;;;;7.93;4.72;;;;;;;-4.28;66.07;103361.16;5049776;28;20316;-83
2024/01/09 10:42:27;;;;;;;8.23;4.40;;;;;;;-4.25;65.71;103348.47;5070507;28;20028;-82
2024/01/09 10:44:57;;;;;;;8.38;4.68;;;;;;;-4.19;65.18;103361.88;5069762;28;20048;-83
2024/01/09 10:47:24;;;;;;;6.85;4.38;;;;;;;-4.15;65.63;103363.03;5059191;28;20456;-83
2024/01/09 10:49:51;;;;;;;9.15;4.72;;;;;;;-4.15;64.21;103348.41;5039260;28;20031;-83
2024/01/09 10:52:17;;;;;;;10.68;5.05;;;;;;;-4.06;64.01;103353.38;5052471;28;20093;-84
2024/01/09 10:54:46;;;;;;;8.45;4.28;;;;;;;-3.96;63.68;103360.19;5058144;28;20040;-84
2024/01/09 10:57:13;;;;;;;8.57;4.07;;;;;;;-3.92;64.11;103355.38;5051138;28;20509;-84
2024/01/09 10:59:40;;;;;;;8.23;4.70;;;;;;;-3.83;63.70;103365.53;5071733;28;20040;-82
2024/01/09 11:02:17;;;;;;;11.52;4.90;;;;;;;-3.91;63.39;103331.31;5049045;28;20032;-84
2024/01/09 11:04:44;;;;;;;8.98;4.47;;;;;;;-3.76;64.85;103344.53;5036770;28;20321;-84
2024/01/09 11:07:14;;;;;;;9.52;4.22;;;;;;;-3.75;62.63;103330.78;5042149;28;20067;-84
2024/01/09 11:09:42;;;;;;;5.80;4.25;;;;;;;-3.66;63.75;103333.16;5059380;28;20040;-83
2024/01/09 11:12:20;;;;;;;9.05;4.32;;;;;;;-3.63;62.96;103325.63;5059789;28;20016;-83
2024/01/09 11:14:52;;;;;;;8.43;4.40;;;;;;;-3.59;62.54;103306.03;5067752;28;20138;-83
2024/01/09 11:17:20;;;;;;;7.82;3.90;;;;;;;-3.48;61.70;103324.19;5057170;28;20112;-88
2024/01/09 11:19:45;;;;;;;9.82;4.65;;;;;;;-3.46;62.61;103325.22;5041329;28;20032;-88